Time;durP1;ratioP1;P1;durP2;ratioP2;P2;SDS_P1;SDS_P2;PMS_P1;PMS_P2;Temp;Humidity;BMP_temperature;BMP_pressure;BME280_temperature;BME280_humidity;BME280_pressure;Samples;Min_cycle;Max_cycle;Signal;HPM_P1;HPM_P2
2021/04/05 00:00:52;;;;;;;18.53;7.67;;;;;;;2.95;66.34;100436.11;126195;1096;104258;-78
2021/04/05 00:03:27;;;;;;;16.97;7.13;;;;;;;2.92;65.99;100435.91;126267;1096;104136;-78
2021/04/05 00:05:56;;;;;;;17.90;7.27;;;;;;;2.91;66.12;100431.51;126230;1098;104258;-78
2021/04/05 00:08:25;;;;;;;16.50;7.03;;;;;;;2.91;65.89;100426.33;126291;1096;104130;-78
2021/04/05 00:10:56;;;;;;;16.77;6.80;;;;;;;2.91;66.34;100432.39;126216;1097;105522;-78
2021/04/05 00:13:27;;;;;;;18.23;7.47;;;;;;;2.91;66.46;100434.98;126190;1099;104189;-78
2021/04/05 00:15:57;;;;;;;15.57;6.97;;;;;;;2.87;66.06;100436.49;126251;1099;104264;-78
2021/04/05 00:18:27;;;;;;;16.43;7.13;;;;;;;2.83;66.20;100428.41;126334;1099;104201;-78
2021/04/05 00:21:01;;;;;;;14.33;5.90;;;;;;;2.77;65.98;100423.72;126306;1096;104270;-78
2021/04/05 00:23:30;;;;;;;18.63;6.80;;;;;;;2.74;65.90;100427.81;126205;1099;104197;-78
2021/04/05 00:25:59;;;;;;;16.60;6.33;;;;;;;2.72;66.01;100424.23;126341;1099;104137;-78
2021/04/05 00:28:29;;;;;;;14.47;6.23;;;;;;;2.71;66.23;100425.91;126269;1099;104136;-78
2021/04/05 00:30:58;;;;;;;16.20;6.60;;;;;;;2.71;66.64;100431.09;126250;1096;104188;-79
2021/04/05 00:33:28;;;;;;;17.80;6.60;;;;;;;2.70;66.12;100424.13;126294;1099;104669;-78
2021/04/05 00:35:56;;;;;;;16.40;6.00;;;;;;;2.67;65.97;100417.04;126214;1099;104223;-79
2021/04/05 00:38:25;;;;;;;14.63;6.10;;;;;;;2.66;65.58;100416.94;126333;1099;104182;-78
2021/04/05 00:40:59;;;;;;;13.80;5.90;;;;;;;2.63;66.18;100416.73;126258;1096;104211;-78
2021/04/05 00:43:28;;;;;;;;;;;;;;;2.61;66.23;100402.80;126281;1096;104216;-78
2021/04/05 00:45:57;;;;;;;12.80;5.93;;;;;;;2.59;66.35;100409.58;126263;1099;104149;-78
2021/04/05 00:48:27;;;;;;;14.70;6.00;;;;;;;2.60;66.28;100400.98;126220;1099;104139;-78
2021/04/05 00:51:00;;;;;;;16.63;6.43;;;;;;;2.61;66.76;100405.39;126224;1096;104236;-78
2021/04/05 00:53:35;;;;;;;14.93;6.07;;;;;;;2.60;66.09;100408.77;126309;1099;104149;-79
2021/04/05 00:56:05;;;;;;;15.97;6.20;;;;;;;2.59;66.29;100406.98;126189;1099;104146;-78
2021/04/05 00:58:35;;;;;;;13.87;5.73;;;;;;;2.56;66.03;100406.78;126157;1099;104450;-78
2021/04/05 01:01:06;;;;;;;15.10;6.17;;;;;;;2.51;66.87;100409.95;126142;1099;104171;-78
2021/04/05 01:03:41;;;;;;;16.57;6.37;;;;;;;2.49;66.28;100406.37;126199;1099;104313;-78
2021/04/05 01:06:14;;;;;;;13.63;5.77;;;;;;;2.53;66.13;100409.17;126192;1099;104313;-77
2021/04/05 01:08:43;;;;;;;15.63;6.07;;;;;;;2.51;65.93;100402.19;126146;1099;104181;-77
2021/04/05 01:11:14;;;;;;;14.87;6.20;;;;;;;2.50;66.25;100402.09;126134;1099;104169;-78
2021/04/05 01:13:44;;;;;;;14.73;6.03;;;;;;;2.47;66.27;100407.95;126120;1099;104319;-77
2021/04/05 01:16:13;;;;;;;18.67;6.23;;;;;;;2.45;66.53;100409.55;126162;1098;104670;-77
2021/04/05 01:18:42;;;;;;;13.87;5.80;;;;;;;2.46;66.20;100413.03;126198;1098;104398;-78
2021/04/05 01:21:12;;;;;;;15.13;6.00;;;;;;;2.44;65.64;100409.45;126027;1099;104188;-78
2021/04/05 01:23:41;;;;;;;14.67;5.83;;;;;;;2.40;65.80;100413.53;126193;1099;104315;-78
2021/04/05 01:26:09;;;;;;;15.77;5.93;;;;;;;2.39;66.10;100416.91;126151;1099;104274;-77
2021/04/05 01:28:38;;;;;;;15.13;5.67;;;;;;;2.39;66.22;100416.91;126244;1097;104143;-78
2021/04/05 01:31:07;;;;;;;12.63;5.03;;;;;;;2.41;66.00;100411.83;126209;1099;104252;-79
2021/04/05 01:33:38;;;;;;;12.70;5.60;;;;;;;2.41;66.06;100410.13;126210;1099;104332;-79
2021/04/05 01:36:09;;;;;;;14.37;5.80;;;;;;;2.41;66.45;100410.13;126335;1099;104150;-78
2021/04/05 01:38:41;;;;;;;16.40;5.80;;;;;;;2.39;66.03;100409.14;126278;1099;104168;-79
2021/04/05 01:41:13;;;;;;;15.63;5.57;;;;;;;2.37;65.97;100412.41;126254;1099;104215;-79
2021/04/05 01:43:43;;;;;;;15.27;6.30;;;;;;;2.36;66.65;100410.64;126289;1098;102214;-79
2021/04/05 01:46:14;;;;;;;14.40;5.50;;;;;;;2.32;66.20;100406.92;126299;1096;104816;-79
2021/04/05 01:48:43;;;;;;;13.63;5.37;;;;;;;2.30;66.05;100411.11;126316;1099;104156;-78
2021/04/05 01:51:14;;;;;;;11.80;5.00;;;;;;;2.31;66.14;100399.97;126263;1099;104253;-79
2021/04/05 01:53:45;;;;;;;12.17;5.17;;;;;;;2.32;66.12;100405.25;126269;1099;104233;-78
2021/04/05 01:56:16;;;;;;;14.03;5.53;;;;;;;2.34;66.34;100403.66;126337;1099;104153;-79
2021/04/05 01:58:47;;;;;;;14.40;5.80;;;;;;;2.36;66.13;100406.34;126343;1099;104149;-79
2021/04/05 02:01:19;;;;;;;13.73;5.70;;;;;;;2.38;66.32;100407.34;126234;1099;104146;-79
2021/04/05 02:03:48;;;;;;;14.83;5.87;;;;;;;2.36;66.13;100403.75;126290;1099;104143;-79
2021/04/05 02:06:20;;;;;;;12.03;5.20;;;;;;;2.34;66.24;100402.77;126300;1099;104277;-79
2021/04/05 02:08:52;;;;;;;13.43;5.70;;;;;;;2.29;66.33;100401.54;126280;1099;104261;-79
2021/04/05 02:11:23;;;;;;;15.43;5.43;;;;;;;2.25;65.86;100404.73;126235;1099;104274;-79
2021/04/05 02:13:54;;;;;;;15.60;5.53;;;;;;;2.22;66.11;100395.06;126270;1099;105938;-79
2021/04/05 02:16:25;;;;;;;14.73;6.03;;;;;;;2.21;66.35;100397.55;126218;1099;104133;-79
2021/04/05 02:18:56;;;;;;;13.37;5.40;;;;;;;2.15;65.68;100398.02;126264;1099;104245;-79
2021/04/05 02:21:27;;;;;;;19.10;6.00;;;;;;;2.13;65.72;100400.50;126343;1098;104363;-79
2021/04/05 02:24:02;;;;;;;15.03;5.57;;;;;;;2.11;66.21;100391.75;126238;1099;111672;-79
2021/04/05 02:26:35;;;;;;;13.30;5.33;;;;;;;2.08;66.46;100399.30;126335;1099;104143;-79
2021/04/05 02:29:06;;;;;;;13.00;5.35;;;;;;;2.06;66.04;100394.84;126346;1099;104155;-79
2021/04/05 02:31:37;;;;;;;12.93;5.60;;;;;;;2.03;66.00;100386.86;126254;1099;104201;-79
2021/04/05 02:34:11;;;;;;;13.23;5.53;;;;;;;2.01;66.19;100389.34;126253;1099;104139;-79
2021/04/05 02:36:41;;;;;;;14.30;5.40;;;;;;;1.99;66.34;100396.09;126341;1099;104149;-79
2021/04/05 02:39:14;;;;;;;12.75;5.55;;;;;;;1.98;66.10;100391.73;126339;1099;104264;-79
2021/04/05 02:41:47;;;;;;;16.53;6.03;;;;;;;1.99;66.55;100388.32;126250;1099;104386;-79
2021/04/05 02:44:19;;;;;;;14.33;5.80;;;;;;;2.00;66.33;100391.83;126226;1099;104166;-78
2021/04/05 02:46:48;;;;;;;12.73;5.30;;;;;;;2.02;66.45;100395.41;126275;1099;104139;-79
2021/04/05 02:49:20;;;;;;;17.33;6.30;;;;;;;2.01;66.58;100389.34;126297;1099;104163;-78
2021/04/05 02:51:50;;;;;;;15.13;6.20;;;;;;;2.02;66.62;100390.23;126321;1097;104220;-79
2021/04/05 02:54:24;;;;;;;14.00;5.37;;;;;;;1.97;66.17;100387.33;126162;1099;104303;-78
2021/04/05 02:56:54;;;;;;;17.83;6.13;;;;;;;1.94;66.82;100390.59;126125;1099;104213;-79
2021/04/05 02:59:23;;;;;;;13.90;5.67;;;;;;;1.93;66.56;100391.41;126313;1099;104241;-78
2021/04/05 03:01:52;;;;;;;15.10;5.93;;;;;;;1.91;67.17;100386.91;126257;1099;104156;-78
2021/04/05 03:04:22;;;;;;;16.00;5.63;;;;;;;1.90;66.75;100379.94;126172;1098;104175;-78
2021/04/05 03:06:52;;;;;;;12.90;5.43;;;;;;;1.95;66.90;100382.05;126153;1099;104358;-78
2021/04/05 03:09:21;;;;;;;19.77;6.37;;;;;;;2.03;66.46;100377.39;126194;1099;104143;-78
2021/04/05 03:11:54;;;;;;;13.47;6.17;;;;;;;2.10;66.89;100383.88;126124;1099;104271;-78
2021/04/05 03:14:25;;;;;;;16.13;6.00;;;;;;;2.12;67.09;100372.84;126226;1099;104204;-78
2021/04/05 03:16:54;;;;;;;22.50;6.03;;;;;;;2.12;66.67;100378.02;126277;1099;104143;-78
2021/04/05 03:19:26;;;;;;;17.57;6.37;;;;;;;2.13;66.62;100376.31;126164;1099;104207;-78
2021/04/05 03:21:55;;;;;;;15.67;6.00;;;;;;;2.12;66.73;100372.84;126214;1099;104265;-78
2021/04/05 03:24:24;;;;;;;15.85;6.10;;;;;;;2.11;66.82;100364.97;126172;1099;104312;-77
2021/04/05 03:26:53;;;;;;;15.80;6.03;;;;;;;2.11;66.87;100360.68;126133;1099;104290;-77
2021/04/05 03:29:24;;;;;;;13.77;6.00;;;;;;;2.09;66.80;100358.81;126234;1099;104133;-78
2021/04/05 03:31:55;;;;;;;13.90;5.35;;;;;;;2.07;66.67;100350.02;126275;1098;104152;-78
2021/04/05 03:34:27;;;;;;;17.57;5.50;;;;;;;2.05;66.82;100344.73;126141;1099;105310;-78
2021/04/05 03:37:01;;;;;;;15.23;5.80;;;;;;;2.04;66.49;100347.22;126198;1097;104143;-78
2021/04/05 03:39:31;;;;;;;14.50;5.60;;;;;;;1.99;66.34;100346.91;126184;1099;104153;-79
2021/04/05 03:42:06;;;;;;;15.93;6.30;;;;;;;2.04;67.08;100342.97;126177;1097;104198;-79
2021/04/05 03:44:45;;;;;;;16.03;6.00;;;;;;;2.06;67.02;100341.37;126263;1099;104217;-79
2021/04/05 03:47:21;;;;;;;18.03;6.47;;;;;;;2.07;67.08;100325.05;126243;1099;104329;-79
2021/04/05 03:49:55;;;;;;;18.63;7.97;;;;;;;2.11;67.07;100333.91;126360;1099;104293;-78
2021/04/05 03:52:32;;;;;;;17.37;6.13;;;;;;;2.13;67.19;100338.37;126259;1099;104168;-78
2021/04/05 03:55:07;;;;;;;16.77;6.03;;;;;;;2.12;67.07;100325.33;126336;1099;102677;-79
2021/04/05 03:57:41;;;;;;;18.33;6.17;;;;;;;2.13;67.17;100335.78;126244;1099;104158;-79
2021/04/05 04:00:14;;;;;;;13.30;5.65;;;;;;;2.21;66.78;100332.82;126323;1099;104165;-78
2021/04/05 04:02:48;;;;;;;17.43;6.70;;;;;;;2.30;66.72;100339.50;126144;1099;104146;-78
2021/04/05 04:05:27;;;;;;;;;;;;;;;2.32;66.50;100332.75;126048;1099;104149;-79
2021/04/05 04:08:02;;;;;;;20.07;6.93;;;;;;;2.36;66.88;100336.42;126325;1097;104331;-79
2021/04/05 04:10:33;;;;;;;17.30;6.37;;;;;;;2.41;66.70;100341.91;126441;1099;104278;-78
2021/04/05 04:13:08;;;;;;;16.00;6.30;;;;;;;2.43;66.22;100341.22;126342;1099;104278;-78
2021/04/05 04:15:38;;;;;;;17.03;6.50;;;;;;;2.46;66.13;100338.84;126312;1096;104275;-78
2021/04/05 04:18:10;;;;;;;15.90;6.80;;;;;;;2.47;66.25;100339.72;126169;1099;102286;-77
2021/04/05 04:20:39;;;;;;;21.13;7.67;;;;;;;2.47;67.31;100339.72;126367;1096;104272;-77
2021/04/05 04:23:08;;;;;;;22.90;7.50;;;;;;;2.53;67.26;100334.05;126347;1096;104345;-78
2021/04/05 04:25:37;;;;;;;19.03;7.23;;;;;;;2.59;66.93;100335.34;126263;1099;104168;-78
2021/04/05 04:28:09;;;;;;;19.63;7.27;;;;;;;2.64;66.61;100333.05;126407;1099;104152;-77
2021/04/05 04:30:38;;;;;;;17.83;7.03;;;;;;;2.67;66.43;100333.25;126367;1099;104134;-77
2021/04/05 04:33:08;;;;;;;18.00;6.87;;;;;;;2.69;66.75;100342.00;126395;1099;104146;-77
2021/04/05 04:35:46;;;;;;;18.70;7.33;;;;;;;2.67;66.06;100338.42;126121;1099;104191;-77
2021/04/05 04:38:16;;;;;;;16.37;6.27;;;;;;;2.65;66.45;100337.41;126291;1099;104323;-78
2021/04/05 04:40:46;;;;;;;18.93;7.17;;;;;;;2.64;66.59;100338.23;126382;1096;104124;-78
2021/04/05 04:43:16;;;;;;;15.97;7.00;;;;;;;2.65;66.59;100340.92;126190;1096;104201;-78
2021/04/05 04:45:46;;;;;;;17.40;7.07;;;;;;;2.67;66.38;100338.42;126207;1096;102105;-78
2021/04/05 04:48:15;;;;;;;18.77;7.07;;;;;;;2.70;66.68;100333.45;126370;1099;104265;-77
2021/04/05 04:50:45;;;;;;;18.10;6.80;;;;;;;2.70;66.49;100339.52;126192;1099;104140;-78
2021/04/05 04:53:14;;;;;;;19.17;7.03;;;;;;;2.70;66.17;100333.45;126192;1099;104152;-78
2021/04/05 04:55:45;;;;;;;16.13;6.37;;;;;;;2.71;66.81;100327.44;126067;1099;104284;-78
2021/04/05 04:58:19;;;;;;;19.37;6.87;;;;;;;2.70;66.77;100325.67;126207;1099;104661;-78
2021/04/05 05:00:48;;;;;;;15.20;6.90;;;;;;;2.79;66.36;100317.56;126226;1099;104159;-78
2021/04/05 05:03:20;;;;;;;17.87;6.37;;;;;;;2.87;66.34;100327.64;126220;1099;104287;-79
2021/04/05 05:05:52;;;;;;;17.40;6.47;;;;;;;2.92;66.38;100319.27;126110;1099;104175;-78
2021/04/05 05:08:22;;;;;;;15.17;6.30;;;;;;;2.95;66.61;100332.42;125353;1099;104331;-78
2021/04/05 05:10:52;;;;;;;17.30;7.10;;;;;;;2.95;66.40;100327.23;125215;1099;104143;-80
2021/04/05 05:13:21;;;;;;;17.43;6.40;;;;;;;2.96;66.75;100322.16;126017;1099;104721;-79
2021/04/05 05:15:52;;;;;;;19.40;6.27;;;;;;;2.96;66.57;100329.01;125842;1099;104159;-79
2021/04/05 05:18:22;;;;;;;15.13;5.97;;;;;;;2.97;66.30;100329.11;125855;1099;104326;-76
2021/04/05 05:20:52;;;;;;;17.60;6.03;;;;;;;3.00;66.58;100328.42;125734;1099;104367;-76
2021/04/05 05:23:22;;;;;;;15.80;6.40;;;;;;;3.04;66.58;100328.70;125923;1099;104272;-77
2021/04/05 05:25:52;;;;;;;16.97;6.53;;;;;;;3.12;66.31;100331.78;125856;1099;104351;-77
2021/04/05 05:28:22;;;;;;;18.90;6.90;;;;;;;3.17;66.70;100330.36;125845;1099;104172;-77
2021/04/05 05:30:57;;;;;;;18.97;6.63;;;;;;;3.22;66.49;100326.34;125875;1099;104647;-77
2021/04/05 05:33:29;;;;;;;15.23;5.90;;;;;;;3.30;66.76;100326.83;126051;1098;104222;-78
2021/04/05 05:35:59;;;;;;;20.30;7.10;;;;;;;3.38;66.32;100322.11;125935;1099;104159;-77
2021/04/05 05:38:32;;;;;;;19.83;6.37;;;;;;;3.45;66.76;100319.11;126149;1099;104242;-77
2021/04/05 05:41:16;;;;;;;17.47;6.07;;;;;;;3.53;66.42;100311.79;125946;1099;104264;-78
2021/04/05 05:43:50;;;;;;;19.10;7.20;;;;;;;3.65;66.21;100316.84;125972;1099;104290;-78
2021/04/05 05:46:23;;;;;;;;;;;;;;;3.73;65.82;100310.40;126022;1098;105326;-78
2021/04/05 05:49:11;;;;;;;17.10;6.37;;;;;;;3.79;66.66;100315.96;126004;1099;104316;-78
2021/04/05 05:52:04;;;;;;;16.63;6.30;;;;;;;3.85;66.23;100313.73;126044;1099;104524;-80
2021/04/05 05:54:51;;;;;;;15.87;6.27;;;;;;;3.95;65.55;100313.45;125841;1099;104255;-79
2021/04/05 05:57:37;;;;;;;16.03;5.87;;;;;;;4.04;65.53;100300.12;125795;1099;104625;-79
2021/04/05 06:00:16;;;;;;;15.30;5.77;;;;;;;4.18;65.66;100306.13;125969;1099;104181;-78
2021/04/05 06:03:00;;;;;;;14.93;6.30;;;;;;;4.26;66.31;100304.86;126063;1099;104187;-80
2021/04/05 06:05:53;;;;;;;17.42;6.28;;;;;;;4.37;66.17;100302.88;126505;1099;104222;-79
2021/04/05 06:08:48;;;;;;;14.07;6.20;;;;;;;4.51;65.51;100311.47;126159;1099;107684;-80
2021/04/05 06:11:57;;;;;;;16.20;6.70;;;;;;;4.63;66.10;100306.97;126263;1099;104175;-79
2021/04/05 06:14:41;;;;;;;;;;;;;;;4.78;65.92;100303.42;126440;1099;104136;-80
2021/04/05 06:17:29;;;;;;;17.42;6.53;;;;;;;4.85;65.64;100306.45;126257;1098;102275;-81
2021/04/05 06:20:10;;;;;;;17.33;6.37;;;;;;;4.97;65.22;100313.12;125820;1099;104241;-80
2021/04/05 06:23:07;;;;;;;13.40;5.83;;;;;;;5.10;64.99;100304.31;125956;1098;104214;-80
2021/04/05 06:25:57;;;;;;;17.03;6.93;;;;;;;5.24;65.22;100302.47;126121;1098;104495;-80
2021/04/05 06:28:40;;;;;;;15.23;7.07;;;;;;;5.36;65.21;100301.41;125854;1098;104163;-80
2021/04/05 06:31:32;;;;;;;16.70;6.53;;;;;;;5.52;65.35;100305.70;125770;1099;104159;-79
2021/04/05 06:34:25;;;;;;;15.83;6.50;;;;;;;5.69;65.45;100303.99;126638;1099;102074;-79
2021/04/05 06:37:12;;;;;;;18.10;6.70;;;;;;;5.84;65.17;100301.27;126028;1099;104176;-79
2021/04/05 06:39:50;;;;;;;16.63;6.60;;;;;;;5.97;65.21;100308.06;125780;1099;104139;-80
2021/04/05 06:42:48;;;;;;;18.73;6.40;;;;;;;6.07;65.02;100305.08;126072;1096;104169;-79
2021/04/05 06:45:37;;;;;;;14.40;5.67;;;;;;;6.21;64.77;100304.89;125848;1099;104165;-80
2021/04/05 06:48:36;;;;;;;13.75;5.40;;;;;;;6.35;64.54;100297.77;125841;1099;104563;-81
2021/04/05 06:51:34;;;;;;;13.63;5.20;;;;;;;6.55;64.40;100293.53;125924;1099;104224;-82
2021/04/05 06:54:30;;;;;;;15.03;5.23;;;;;;;6.79;64.29;100293.80;125995;1099;104210;-80
2021/04/05 06:57:11;;;;;;;13.50;5.20;;;;;;;6.96;64.36;100292.87;125799;1099;104149;-78
2021/04/05 06:59:58;;;;;;;13.10;5.45;;;;;;;7.09;64.02;100296.05;125810;1099;105711;-80
2021/04/05 07:03:00;;;;;;;13.67;5.10;;;;;;;7.25;63.73;100292.45;127224;1098;101964;-79
2021/04/05 07:05:49;;;;;;;17.70;5.20;;;;;;;7.47;63.54;100297.80;125693;1099;104286;-80
2021/04/05 07:08:28;;;;;;;16.25;6.20;;;;;;;7.64;63.47;100293.34;125725;1099;104284;-78
2021/04/05 07:11:14;;;;;;;13.50;5.83;;;;;;;7.79;63.30;100289.60;125958;1098;104220;-78
2021/04/05 07:14:03;;;;;;;17.67;6.57;;;;;;;7.91;63.30;100293.63;125768;1099;104134;-78
2021/04/05 07:16:47;;;;;;;16.67;5.63;;;;;;;8.04;63.19;100283.70;125944;1099;104221;-79
2021/04/05 07:19:33;;;;;;;15.20;5.87;;;;;;;8.19;63.18;100275.63;125843;1097;104297;-78
2021/04/05 07:22:17;;;;;;;13.10;5.47;;;;;;;8.33;62.60;100268.36;125867;1099;104229;-80
2021/04/05 07:24:55;;;;;;;10.37;5.00;;;;;;;8.40;62.40;100267.79;125756;1099;104406;-78
2021/04/05 07:27:35;;;;;;;16.57;5.90;;;;;;;8.54;61.79;100270.97;125942;1098;104217;-79
2021/04/05 07:30:10;;;;;;;15.03;5.43;;;;;;;8.69;62.22;100257.62;125715;1099;104286;-77
2021/04/05 07:32:51;;;;;;;12.87;5.17;;;;;;;8.75;62.03;100261.36;126029;1099;104175;-77
2021/04/05 07:35:33;;;;;;;13.40;4.83;;;;;;;8.89;61.72;100253.16;125936;1099;104257;-77
2021/04/05 07:38:11;;;;;;;11.13;4.90;;;;;;;9.04;61.36;100248.52;125905;1097;104221;-77
2021/04/05 07:40:57;;;;;;;12.55;5.15;;;;;;;9.18;61.14;100241.19;125826;1099;106762;-77
2021/04/05 07:43:52;;;;;;;14.40;5.93;;;;;;;9.38;61.26;100249.77;125833;1099;104306;-79
2021/04/05 07:46:27;;;;;;;16.67;5.07;;;;;;;9.56;60.83;100244.29;125933;1099;104453;-78
2021/04/05 07:49:12;;;;;;;14.77;5.20;;;;;;;9.86;61.54;100240.95;125972;1098;104166;-78
2021/04/05 07:51:51;;;;;;;12.50;4.87;;;;;;;10.19;60.39;100241.22;125835;1099;104267;-78
2021/04/05 07:54:26;;;;;;;10.23;4.60;;;;;;;10.53;60.48;100228.31;125778;1099;104166;-78
2021/04/05 07:57:10;;;;;;;15.03;5.17;;;;;;;10.77;60.51;100222.95;125966;1099;104134;-79
2021/04/05 07:59:45;;;;;;;;;;;;;;;11.05;59.57;100215.91;125797;1099;104347;-78
2021/04/05 08:02:41;;;;;;;11.27;4.53;;;;;;;11.26;59.62;100208.61;125892;1098;104335;-79
2021/04/05 08:05:30;;;;;;;11.90;4.73;;;;;;;11.43;59.63;100209.08;125931;1099;104143;-79
2021/04/05 08:08:43;;;;;;;12.77;4.90;;;;;;;11.59;59.59;100212.13;125956;1099;104180;-78
2021/04/05 08:11:26;;;;;;;11.00;5.17;;;;;;;11.57;57.48;100213.84;125893;1099;120998;-79
2021/04/05 08:14:13;;;;;;;13.35;5.10;;;;;;;11.38;57.78;100213.33;125724;1099;104415;-80
2021/04/05 08:17:02;;;;;;;12.60;4.87;;;;;;;11.33;58.10;100204.44;125797;1098;104140;-79
2021/04/05 08:19:44;;;;;;;12.20;4.80;;;;;;;11.32;58.12;100203.53;125697;1099;104697;-79
2021/04/05 08:22:24;;;;;;;8.70;4.63;;;;;;;11.39;58.30;100198.45;125652;1099;104187;-78
2021/04/05 08:25:21;;;;;;;12.43;5.00;;;;;;;11.49;58.09;100185.61;125793;1099;104171;-77
2021/04/05 08:28:10;;;;;;;16.20;5.10;;;;;;;11.49;57.24;100187.35;125847;1099;104192;-79
2021/04/05 08:30:51;;;;;;;11.33;4.80;;;;;;;11.35;57.57;100181.72;125692;1099;104361;-78
2021/04/05 08:33:34;;;;;;;10.67;4.73;;;;;;;11.32;57.35;100177.27;125588;1099;104360;-78
2021/04/05 08:36:25;;;;;;;11.13;5.07;;;;;;;11.41;57.10;100176.64;125794;1097;104192;-78
2021/04/05 08:39:06;;;;;;;9.30;4.43;;;;;;;11.60;56.78;100171.88;126090;1099;104334;-80
2021/04/05 08:42:02;;;;;;;9.00;4.10;;;;;;;11.65;56.61;100172.87;126197;1096;104312;-80
2021/04/05 08:44:40;;;;;;;9.80;4.40;;;;;;;11.66;56.55;100164.16;126149;1099;104136;-77
2021/04/05 08:47:32;;;;;;;11.63;4.80;;;;;;;11.74;56.17;100162.60;126255;1098;104143;-77
2021/04/05 08:50:09;;;;;;;9.20;4.10;;;;;;;11.75;55.47;100163.48;126134;1099;104200;-80
2021/04/05 08:55:41;;;;;;;10.17;3.63;;;;;;;11.82;55.14;100142.64;125918;1099;104233;-77
2021/04/05 08:58:17;;;;;;;11.00;4.40;;;;;;;11.92;55.36;100140.25;125895;1099;104294;-76
2021/04/05 09:00:49;;;;;;;8.90;4.30;;;;;;;12.14;55.48;100141.67;125905;1099;104187;-77
2021/04/05 09:03:24;;;;;;;8.20;3.93;;;;;;;12.30;55.19;100141.19;125935;1099;104187;-77
2021/04/05 09:05:55;;;;;;;9.50;3.60;;;;;;;12.55;55.68;100137.36;125846;1099;104386;-77
2021/04/05 09:08:27;;;;;;;7.07;3.83;;;;;;;12.79;55.20;100135.22;125810;1099;105396;-78
2021/04/05 09:11:02;;;;;;;9.53;3.70;;;;;;;12.94;55.48;100135.54;125868;1099;104171;-77
2021/04/05 09:13:40;;;;;;;10.60;3.80;;;;;;;12.93;55.10;100134.66;125952;1098;104146;-78
2021/04/05 09:19:58;;;;;;;7.03;3.70;;;;;;;12.90;54.46;100126.70;125680;1099;102574;-79
2021/04/05 09:22:49;;;;;;;10.30;3.80;;;;;;;12.83;53.20;100124.78;125742;1099;104264;-79
2021/04/05 09:25:50;;;;;;;7.00;3.30;;;;;;;12.78;54.20;100121.18;125761;1096;102445;-79
2021/04/05 09:28:47;;;;;;;8.30;3.77;;;;;;;12.86;54.16;100127.48;125713;1099;104299;-79
2021/04/05 09:31:48;;;;;;;10.37;4.40;;;;;;;12.89;54.25;100124.03;125846;1099;104155;-79
2021/04/05 09:34:38;;;;;;;8.17;3.83;;;;;;;13.07;53.83;100111.23;125972;1099;104232;-79
2021/04/05 09:37:47;;;;;;;9.20;3.77;;;;;;;13.28;53.42;100100.19;126486;1099;104143;-79
2021/04/05 09:40:40;;;;;;;7.33;3.30;;;;;;;13.42;52.71;100103.11;125988;1098;104207;-81
2021/04/05 09:43:38;;;;;;;7.53;3.33;;;;;;;13.47;52.93;100101.44;125705;1099;112607;-78
2021/04/05 09:46:29;;;;;;;5.83;3.30;;;;;;;13.38;51.54;100090.73;126120;1099;104190;-78
2021/04/05 09:49:10;;;;;;;12.90;3.60;;;;;;;13.39;52.39;100094.27;126119;1096;104362;-78
2021/04/05 09:52:04;;;;;;;6.07;3.40;;;;;;;13.53;52.45;100078.70;125573;1099;104246;-79
2021/04/05 09:54:48;;;;;;;6.93;3.67;;;;;;;13.72;52.28;100087.80;125701;1099;104188;-79
2021/04/05 09:57:31;;;;;;;14.60;3.47;;;;;;;13.83;51.96;100083.58;125721;1098;104278;-79
2021/04/05 10:00:09;;;;;;;8.30;3.30;;;;;;;13.92;52.03;100074.93;125841;1099;104323;-78
2021/04/05 10:02:48;;;;;;;9.57;3.23;;;;;;;14.02;51.79;100077.73;125678;1098;103346;-78
2021/04/05 10:05:24;;;;;;;5.47;3.30;;;;;;;14.17;50.16;100063.86;125872;1096;104150;-79
2021/04/05 10:07:56;;;;;;;7.10;3.17;;;;;;;14.25;50.21;100069.23;125625;1099;104188;-79
2021/04/05 10:10:35;;;;;;;11.83;3.30;;;;;;;14.37;51.12;100068.53;125645;1099;104140;-79
2021/04/05 10:13:08;;;;;;;5.67;3.27;;;;;;;14.43;50.16;100075.63;125616;1099;104331;-79
2021/04/05 10:15:37;;;;;;;6.40;3.40;;;;;;;14.35;50.07;100071.16;126151;1099;104226;-79
2021/04/05 10:18:12;;;;;;;8.40;3.37;;;;;;;14.26;50.32;100068.39;125609;1099;104205;-78
2021/04/05 10:20:46;;;;;;;8.43;3.50;;;;;;;14.27;50.06;100063.98;125683;1099;104220;-78
2021/04/05 10:23:17;;;;;;;;;;;;;;;14.33;49.00;100054.39;125346;1099;104287;-78
2021/04/05 10:25:51;;;;;;;10.50;3.70;;;;;;;14.36;50.26;100062.34;125796;1099;104211;-79
2021/04/05 10:28:29;;;;;;;5.30;3.17;;;;;;;14.16;48.80;100058.55;125808;1099;104283;-78
2021/04/05 10:30:59;;;;;;;12.03;3.50;;;;;;;14.00;49.58;100060.09;125751;1099;104364;-78
2021/04/05 10:33:32;;;;;;;6.90;3.70;;;;;;;13.88;49.63;100059.91;125652;1099;104223;-78
2021/04/05 10:36:04;;;;;;;6.53;3.27;;;;;;;13.94;49.80;100058.23;125161;1099;104172;-79
2021/04/05 10:38:39;;;;;;;8.60;3.70;;;;;;;13.97;49.78;100055.65;125980;1099;104198;-78
2021/04/05 10:41:10;;;;;;;8.07;4.07;;;;;;;14.00;49.50;100044.27;125718;1099;104265;-78
2021/04/05 10:43:46;;;;;;;7.13;4.10;;;;;;;13.96;49.21;100042.44;125679;1099;104306;-79
2021/04/05 10:46:26;;;;;;;11.90;4.10;;;;;;;14.00;49.41;100039.87;126140;1099;104137;-78
2021/04/05 10:49:01;;;;;;;9.93;4.20;;;;;;;14.02;48.72;100037.25;125871;1096;102859;-78
2021/04/05 10:51:40;;;;;;;9.65;4.50;;;;;;;14.17;48.30;100041.88;125864;1096;104498;-78
2021/04/05 10:54:15;;;;;;;9.80;4.37;;;;;;;14.14;48.44;100033.91;125810;1096;104160;-79
2021/04/05 10:56:49;;;;;;;9.50;3.97;;;;;;;14.00;47.76;100029.31;125781;1098;104293;-78
2021/04/05 10:59:22;;;;;;;9.30;4.37;;;;;;;13.87;48.79;100027.39;125856;1099;104210;-78
2021/04/05 11:01:58;;;;;;;10.48;4.03;;;;;;;13.80;48.57;100030.78;125832;1099;104152;-78
2021/04/05 11:04:35;;;;;;;12.33;4.47;;;;;;;13.73;48.57;100031.54;125865;1096;104194;-78
2021/04/05 11:07:10;;;;;;;10.40;4.40;;;;;;;13.62;47.08;100020.86;125855;1096;104141;-77
2021/04/05 11:09:40;;;;;;;;;;;;;;;13.56;46.77;100015.48;125672;1096;103566;-76
2021/04/05 11:12:13;;;;;;;8.40;4.13;;;;;;;13.40;46.56;100002.06;125814;1096;104641;-76
2021/04/05 11:14:43;;;;;;;11.43;4.77;;;;;;;13.34;46.91;100014.23;125778;1096;104166;-77
2021/04/05 11:17:13;;;;;;;8.13;4.30;;;;;;;13.31;47.24;100007.15;125912;1099;104236;-76
2021/04/05 11:19:50;;;;;;;9.30;4.67;;;;;;;13.37;46.88;100011.64;125802;1099;104140;-76
2021/04/05 11:22:23;;;;;;;8.33;4.47;;;;;;;13.36;46.81;100010.77;125810;1099;104219;-76
2021/04/05 11:25:04;;;;;;;8.67;4.37;;;;;;;13.31;46.84;100004.52;125684;1097;104191;-79
2021/04/05 11:27:37;;;;;;;14.13;5.03;;;;;;;13.35;45.95;100000.20;125832;1096;104144;-78
2021/04/05 11:30:08;;;;;;;10.13;4.83;;;;;;;13.42;46.33;100009.99;125878;1098;104194;-77
2021/04/05 11:32:40;;;;;;;11.83;5.17;;;;;;;13.46;46.70;99985.44;125819;1096;104301;-76
2021/04/05 11:35:12;;;;;;;10.47;5.33;;;;;;;13.56;47.08;99984.73;125812;1096;104130;-77
2021/04/05 11:37:43;;;;;;;12.70;4.90;;;;;;;13.61;46.85;99988.31;126029;1099;104213;-76
2021/04/05 11:40:17;;;;;;;12.27;5.30;;;;;;;13.64;46.47;99976.94;125853;1099;104355;-77
2021/04/05 11:42:50;;;;;;;11.07;5.30;;;;;;;13.69;46.51;99982.28;126281;1099;104137;-76
2021/04/05 11:45:29;;;;;;;10.60;5.50;;;;;;;13.61;45.55;99969.86;125957;1096;104584;-77
2021/04/05 11:48:00;;;;;;;12.33;5.93;;;;;;;13.60;46.07;99976.02;125871;1096;104127;-77
2021/04/05 11:50:31;;;;;;;11.45;5.60;;;;;;;13.58;45.87;99964.55;125945;1099;104207;-78
2021/04/05 11:53:10;;;;;;;12.73;6.37;;;;;;;13.54;45.92;99959.20;125936;1096;104140;-77
2021/04/05 11:55:42;;;;;;;15.43;6.03;;;;;;;13.47;45.42;99959.11;125848;1099;104225;-77
2021/04/05 11:58:21;;;;;;;17.37;6.30;;;;;;;13.53;45.96;99958.33;125870;1098;104172;-78